sensor_id;sensor_type;location;lat;lon;timestamp;pressure;altitude;pressure_sealevel;temperature;humidity
12879;BME280;20617;49.476;10.986;2023-04-24T00:01:06;97289.56;;;13.90;100.00
12879;BME280;20617;49.476;10.986;2023-04-24T00:03:12;97290.41;;;13.90;100.00
12879;BME280;20617;49.476;10.986;2023-04-24T00:05:17;97296.72;;;13.88;100.00
12879;BME280;20617;49.476;10.986;2023-04-24T00:07:22;97302.16;;;13.85;100.00
12879;BME280;20617;49.476;10.986;2023-04-24T00:09:27;97294.63;;;13.80;100.00
12879;BME280;20617;49.476;10.986;2023-04-24T00:11:32;97299.94;;;13.78;100.00
12879;BME280;20617;49.476;10.986;2023-04-24T00:13:37;97301.03;;;13.76;100.00
12879;BME280;20617;49.476;10.986;2023-04-24T00:15:45;97300.09;;;13.64;100.00
12879;BME280;20617;49.476;10.986;2023-04-24T00:17:50;97302.69;;;13.64;100.00
12879;BME280;20617;49.476;10.986;2023-04-24T00:19:55;97293.19;;;13.63;100.00
12879;BME280;20617;49.476;10.986;2023-04-24T00:22:01;97294.84;;;13.64;100.00
12879;BME280;20617;49.476;10.986;2023-04-24T00:24:07;97297.38;;;13.66;100.00
12879;BME280;20617;49.476;10.986;2023-04-24T00:26:13;97300.81;;;13.66;100.00
12879;BME280;20617;49.476;10.986;2023-04-24T00:28:18;97297.28;;;13.67;100.00
12879;BME280;20617;49.476;10.986;2023-04-24T00:30:23;97293.09;;;13.65;100.00
12879;BME280;20617;49.476;10.986;2023-04-24T00:32:30;97293.94;;;13.65;100.00
12879;BME280;20617;49.476;10.986;2023-04-24T00:34:35;97297.47;;;13.64;100.00
12879;BME280;20617;49.476;10.986;2023-04-24T00:36:41;97302.00;;;13.62;100.00
12879;BME280;20617;49.476;10.986;2023-04-24T00:38:46;97302.91;;;13.61;100.00
12879;BME280;20617;49.476;10.986;2023-04-24T00:40:51;97293.63;;;13.57;100.00
12879;BME280;20617;49.476;10.986;2023-04-24T00:42:56;97283.47;;;13.52;100.00
12879;BME280;20617;49.476;10.986;2023-04-24T00:45:02;97283.91;;;13.46;100.00
12879;BME280;20617;49.476;10.986;2023-04-24T00:47:14;97283.06;;;13.46;100.00
12879;BME280;20617;49.476;10.986;2023-04-24T00:49:22;97278.78;;;13.45;100.00
12879;BME280;20617;49.476;10.986;2023-04-24T00:51:27;97280.47;;;13.46;100.00
12879;BME280;20617;49.476;10.986;2023-04-24T00:53:32;97284.63;;;13.48;100.00
12879;BME280;20617;49.476;10.986;2023-04-24T00:55:37;97280.03;;;13.52;100.00
12879;BME280;20617;49.476;10.986;2023-04-24T00:57:42;97270.53;;;13.51;100.00
12879;BME280;20617;49.476;10.986;2023-04-24T00:59:48;97273.97;;;13.51;100.00
12879;BME280;20617;49.476;10.986;2023-04-24T01:01:54;97278.16;;;13.54;100.00
12879;BME280;20617;49.476;10.986;2023-04-24T01:03:59;97281.50;;;13.56;100.00
12879;BME280;20617;49.476;10.986;2023-04-24T01:06:09;97276.16;;;13.57;100.00
12879;BME280;20617;49.476;10.986;2023-04-24T01:08:15;97283.78;;;13.61;100.00
12879;BME280;20617;49.476;10.986;2023-04-24T01:10:20;97276.88;;;13.59;100.00
12879;BME280;20617;49.476;10.986;2023-04-24T01:12:26;97280.34;;;13.60;100.00
12879;BME280;20617;49.476;10.986;2023-04-24T01:14:31;97271.53;;;13.61;100.00
12879;BME280;20617;49.476;10.986;2023-04-24T01:16:37;97268.81;;;13.63;100.00
12879;BME280;20617;49.476;10.986;2023-04-24T01:18:43;97264.56;;;13.62;100.00
12879;BME280;20617;49.476;10.986;2023-04-24T01:20:48;97252.75;;;13.56;100.00
12879;BME280;20617;49.476;10.986;2023-04-24T01:23:01;97267.38;;;13.58;100.00
12879;BME280;20617;49.476;10.986;2023-04-24T01:25:06;97275.94;;;13.61;100.00
12879;BME280;20617;49.476;10.986;2023-04-24T01:27:12;97273.31;;;13.61;100.00
12879;BME280;20617;49.476;10.986;2023-04-24T01:29:20;97266.53;;;13.58;100.00
12879;BME280;20617;49.476;10.986;2023-04-24T01:31:25;97268.31;;;13.57;100.00
12879;BME280;20617;49.476;10.986;2023-04-24T01:33:30;97264.34;;;13.52;100.00
12879;BME280;20617;49.476;10.986;2023-04-24T01:35:36;97258.50;;;13.48;100.00
12879;BME280;20617;49.476;10.986;2023-04-24T01:37:41;97269.06;;;13.47;100.00
12879;BME280;20617;49.476;10.986;2023-04-24T01:39:49;97262.16;;;13.46;100.00
12879;BME280;20617;49.476;10.986;2023-04-24T01:41:54;97266.47;;;13.47;100.00
12879;BME280;20617;49.476;10.986;2023-04-24T01:44:00;97259.53;;;13.46;100.00
12879;BME280;20617;49.476;10.986;2023-04-24T01:46:06;97263.72;;;13.48;100.00
12879;BME280;20617;49.476;10.986;2023-04-24T01:48:11;97261.94;;;13.49;100.00
12879;BME280;20617;49.476;10.986;2023-04-24T01:50:17;97267.91;;;13.51;100.00
12879;BME280;20617;49.476;10.986;2023-04-24T01:52:22;97254.84;;;13.51;100.00
12879;BME280;20617;49.476;10.986;2023-04-24T01:54:29;97265.28;;;13.51;100.00
12879;BME280;20617;49.476;10.986;2023-04-24T01:56:36;97253.88;;;13.52;100.00
12879;BME280;20617;49.476;10.986;2023-04-24T01:58:45;97248.56;;;13.53;100.00
12879;BME280;20617;49.476;10.986;2023-04-24T02:00:50;97237.38;;;13.51;100.00
12879;BME280;20617;49.476;10.986;2023-04-24T02:02:55;97234.88;;;13.50;100.00
12879;BME280;20617;49.476;10.986;2023-04-24T02:05:01;97233.91;;;13.51;100.00
12879;BME280;20617;49.476;10.986;2023-04-24T02:07:06;97241.75;;;13.51;100.00
12879;BME280;20617;49.476;10.986;2023-04-24T02:09:11;97232.25;;;13.50;100.00
12879;BME280;20617;49.476;10.986;2023-04-24T02:11:16;97223.69;;;13.48;100.00
12879;BME280;20617;49.476;10.986;2023-04-24T02:13:23;97221.06;;;13.48;100.00
12879;BME280;20617;49.476;10.986;2023-04-24T02:15:28;97227.13;;;13.48;100.00
12879;BME280;20617;49.476;10.986;2023-04-24T02:17:33;97219.59;;;13.44;100.00
12879;BME280;20617;49.476;10.986;2023-04-24T02:19:38;97210.22;;;13.41;100.00
12879;BME280;20617;49.476;10.986;2023-04-24T02:21:44;97216.47;;;13.39;100.00
12879;BME280;20617;49.476;10.986;2023-04-24T02:23:49;97213.88;;;13.39;100.00
12879;BME280;20617;49.476;10.986;2023-04-24T02:25:54;97212.19;;;13.38;100.00
12879;BME280;20617;49.476;10.986;2023-04-24T02:27:59;97222.75;;;13.36;100.00
12879;BME280;20617;49.476;10.986;2023-04-24T02:30:08;97217.41;;;13.38;100.00
12879;BME280;20617;49.476;10.986;2023-04-24T02:32:14;97211.34;;;13.37;100.00
12879;BME280;20617;49.476;10.986;2023-04-24T02:34:18;97211.78;;;13.31;100.00
12879;BME280;20617;49.476;10.986;2023-04-24T02:36:25;97211.91;;;13.29;100.00
12879;BME280;20617;49.476;10.986;2023-04-24T02:38:29;97207.72;;;13.27;100.00
12879;BME280;20617;49.476;10.986;2023-04-24T02:40:34;97209.88;;;13.20;100.00
12879;BME280;20617;49.476;10.986;2023-04-24T02:42:39;97211.66;;;13.20;100.00
12879;BME280;20617;49.476;10.986;2023-04-24T02:44:44;97211.78;;;13.18;100.00
12879;BME280;20617;49.476;10.986;2023-04-24T02:46:52;97212.41;;;13.22;100.00
12879;BME280;20617;49.476;10.986;2023-04-24T02:48:57;97208.13;;;13.21;100.00
12879;BME280;20617;49.476;10.986;2023-04-24T02:51:04;97206.44;;;13.20;100.00
12879;BME280;20617;49.476;10.986;2023-04-24T02:53:09;97210.00;;;13.19;100.00
12879;BME280;20617;49.476;10.986;2023-04-24T02:55:13;97209.88;;;13.20;100.00
12879;BME280;20617;49.476;10.986;2023-04-24T02:57:18;97206.34;;;13.21;100.00
12879;BME280;20617;49.476;10.986;2023-04-24T02:59:24;97211.56;;;13.21;100.00
12879;BME280;20617;49.476;10.986;2023-04-24T03:01:30;97211.34;;;13.24;100.00
12879;BME280;20617;49.476;10.986;2023-04-24T03:03:39;97201.94;;;13.22;100.00
12879;BME280;20617;49.476;10.986;2023-04-24T03:05:44;97202.78;;;13.22;100.00
12879;BME280;20617;49.476;10.986;2023-04-24T03:07:49;97196.09;;;13.18;100.00
12879;BME280;20617;49.476;10.986;2023-04-24T03:09:55;97193.56;;;13.17;100.00
12879;BME280;20617;49.476;10.986;2023-04-24T03:12:01;97194.63;;;13.14;100.00
12879;BME280;20617;49.476;10.986;2023-04-24T03:14:06;97186.78;;;13.14;100.00
12879;BME280;20617;49.476;10.986;2023-04-24T03:16:12;97196.53;;;13.12;100.00
12879;BME280;20617;49.476;10.986;2023-04-24T03:18:17;97194.75;;;13.12;100.00
12879;BME280;20617;49.476;10.986;2023-04-24T03:20:27;97192.00;;;13.14;100.00
12879;BME280;20617;49.476;10.986;2023-04-24T03:22:32;97190.22;;;13.14;100.00
12879;BME280;20617;49.476;10.986;2023-04-24T03:24:41;97197.25;;;13.14;100.00
12879;BME280;20617;49.476;10.986;2023-04-24T03:26:49;97189.00;;;13.07;100.00
12879;BME280;20617;49.476;10.986;2023-04-24T03:29:11;97185.78;;;13.04;100.00
12879;BME280;20617;49.476;10.986;2023-04-24T03:31:17;97190.56;;;12.97;100.00
12879;BME280;20617;49.476;10.986;2023-04-24T03:33:23;97183.06;;;12.93;100.00
12879;BME280;20617;49.476;10.986;2023-04-24T03:35:36;97183.06;;;12.93;100.00
12879;BME280;20617;49.476;10.986;2023-04-24T03:37:44;97189.22;;;12.91;100.00
12879;BME280;20617;49.476;10.986;2023-04-24T03:40:12;97185.97;;;12.88;100.00
12879;BME280;20617;49.476;10.986;2023-04-24T03:42:17;97189.00;;;12.82;100.00
12879;BME280;20617;49.476;10.986;2023-04-24T03:44:29;97180.63;;;12.77;100.00
12879;BME280;20617;49.476;10.986;2023-04-24T03:46:34;97176.28;;;12.77;100.00
12879;BME280;20617;49.476;10.986;2023-04-24T03:48:41;97184.94;;;12.78;100.00
12879;BME280;20617;49.476;10.986;2023-04-24T03:50:48;97189.34;;;12.77;100.00
12879;BME280;20617;49.476;10.986;2023-04-24T03:52:53;97187.75;;;12.75;100.00
12879;BME280;20617;49.476;10.986;2023-04-24T03:55:09;97193.00;;;12.75;100.00
12879;BME280;20617;49.476;10.986;2023-04-24T03:57:19;97190.59;;;12.72;100.00
12879;BME280;20617;49.476;10.986;2023-04-24T03:59:36;97199.47;;;12.69;100.00
12879;BME280;20617;49.476;10.986;2023-04-24T04:01:50;97203.00;;;12.68;100.00
12879;BME280;20617;49.476;10.986;2023-04-24T04:03:55;97203.84;;;12.68;100.00
12879;BME280;20617;49.476;10.986;2023-04-24T04:06:04;97205.72;;;12.66;100.00
12879;BME280;20617;49.476;10.986;2023-04-24T04:08:09;97210.81;;;12.68;100.00
12879;BME280;20617;49.476;10.986;2023-04-24T04:10:14;97208.41;;;12.65;100.00
12879;BME280;20617;49.476;10.986;2023-04-24T04:12:20;97201.31;;;12.67;100.00
12879;BME280;20617;49.476;10.986;2023-04-24T04:14:25;97198.94;;;12.64;100.00
12879;BME280;20617;49.476;10.986;2023-04-24T04:16:32;97202.38;;;12.64;100.00
12879;BME280;20617;49.476;10.986;2023-04-24T04:18:39;97199.22;;;12.59;100.00
12879;BME280;20617;49.476;10.986;2023-04-24T04:20:44;97200.91;;;12.60;100.00
12879;BME280;20617;49.476;10.986;2023-04-24T04:22:53;97198.31;;;12.60;100.00
12879;BME280;20617;49.476;10.986;2023-04-24T04:25:10;97201.41;;;12.53;100.00
12879;BME280;20617;49.476;10.986;2023-04-24T04:27:16;97199.84;;;12.50;100.00
12879;BME280;20617;49.476;10.986;2023-04-24T04:29:31;97201.75;;;12.48;100.00
12879;BME280;20617;49.476;10.986;2023-04-24T04:31:41;97203.59;;;12.46;100.00
12879;BME280;20617;49.476;10.986;2023-04-24T04:33:47;97207.25;;;12.43;100.00
12879;BME280;20617;49.476;10.986;2023-04-24T04:35:52;97206.50;;;12.41;100.00
12879;BME280;20617;49.476;10.986;2023-04-24T04:38:05;97202.13;;;12.42;100.00
12879;BME280;20617;49.476;10.986;2023-04-24T04:40:33;97196.91;;;12.42;100.00
12879;BME280;20617;49.476;10.986;2023-04-24T04:42:42;97203.69;;;12.44;100.00
12879;BME280;20617;49.476;10.986;2023-04-24T04:44:49;97200.06;;;12.47;100.00
12879;BME280;20617;49.476;10.986;2023-04-24T04:46:59;97204.97;;;12.52;100.00
12879;BME280;20617;49.476;10.986;2023-04-24T04:49:10;97198.94;;;12.51;100.00
12879;BME280;20617;49.476;10.986;2023-04-24T04:51:19;97197.34;;;12.49;100.00
12879;BME280;20617;49.476;10.986;2023-04-24T04:53:27;97197.34;;;12.49;100.00
12879;BME280;20617;49.476;10.986;2023-04-24T04:55:32;97194.75;;;12.49;100.00
12879;BME280;20617;49.476;10.986;2023-04-24T04:57:49;97203.41;;;12.49;100.00
12879;BME280;20617;49.476;10.986;2023-04-24T04:59:55;97208.34;;;12.54;100.00
12879;BME280;20617;49.476;10.986;2023-04-24T05:02:15;97209.38;;;12.51;100.00
12879;BME280;20617;49.476;10.986;2023-04-24T05:04:20;97208.50;;;12.51;100.00
12879;BME280;20617;49.476;10.986;2023-04-24T05:06:26;97218.84;;;12.52;100.00
12879;BME280;20617;49.476;10.986;2023-04-24T05:08:36;97218.84;;;12.52;100.00
12879;BME280;20617;49.476;10.986;2023-04-24T05:10:57;97230.03;;;12.54;100.00
12879;BME280;20617;49.476;10.986;2023-04-24T05:13:03;97223.66;;;12.58;100.00
12879;BME280;20617;49.476;10.986;2023-04-24T05:15:09;97230.47;;;12.61;100.00
12879;BME280;20617;49.476;10.986;2023-04-24T05:17:15;97224.50;;;12.59;100.00
12879;BME280;20617;49.476;10.986;2023-04-24T05:19:20;97226.06;;;12.61;100.00
12879;BME280;20617;49.476;10.986;2023-04-24T05:21:25;97222.44;;;12.64;100.00
12879;BME280;20617;49.476;10.986;2023-04-24T05:23:31;97227.56;;;12.65;100.00
12879;BME280;20617;49.476;10.986;2023-04-24T05:25:38;97233.28;;;12.71;100.00
12879;BME280;20617;49.476;10.986;2023-04-24T05:27:46;97229.00;;;12.69;100.00
12879;BME280;20617;49.476;10.986;2023-04-24T05:29:52;97233.94;;;12.74;100.00
12879;BME280;20617;49.476;10.986;2023-04-24T05:31:58;97236.56;;;12.74;100.00
12879;BME280;20617;49.476;10.986;2023-04-24T05:34:05;97236.13;;;12.80;100.00
12879;BME280;20617;49.476;10.986;2023-04-24T05:36:14;97239.56;;;12.81;100.00
12879;BME280;20617;49.476;10.986;2023-04-24T05:38:19;97243.34;;;12.89;100.00
12879;BME280;20617;49.476;10.986;2023-04-24T05:40:24;97243.13;;;12.93;100.00
12879;BME280;20617;49.476;10.986;2023-04-24T05:42:31;97247.09;;;12.98;100.00
12879;BME280;20617;49.476;10.986;2023-04-24T05:44:36;97240.41;;;13.07;100.00
12879;BME280;20617;49.476;10.986;2023-04-24T05:46:41;97235.59;;;13.13;100.00
12879;BME280;20617;49.476;10.986;2023-04-24T05:48:47;97235.31;;;13.18;100.00
12879;BME280;20617;49.476;10.986;2023-04-24T05:50:52;97239.34;;;13.22;100.00
12879;BME280;20617;49.476;10.986;2023-04-24T05:52:58;97238.88;;;13.30;100.00
12879;BME280;20617;49.476;10.986;2023-04-24T05:55:09;97241.97;;;13.35;100.00
12879;BME280;20617;49.476;10.986;2023-04-24T05:57:16;97246.16;;;13.38;100.00
12879;BME280;20617;49.476;10.986;2023-04-24T05:59:30;97241.84;;;13.49;100.00
12879;BME280;20617;49.476;10.986;2023-04-24T06:01:36;97231.31;;;13.51;100.00
12879;BME280;20617;49.476;10.986;2023-04-24T06:03:48;97231.09;;;13.54;100.00
12879;BME280;20617;49.476;10.986;2023-04-24T06:05:55;97242.38;;;13.54;100.00
12879;BME280;20617;49.476;10.986;2023-04-24T06:08:00;97229.91;;;13.58;100.00
12879;BME280;20617;49.476;10.986;2023-04-24T06:10:10;97240.16;;;13.61;100.00
12879;BME280;20617;49.476;10.986;2023-04-24T06:12:18;97243.19;;;13.68;100.00
12879;BME280;20617;49.476;10.986;2023-04-24T06:14:37;97241.78;;;13.75;100.00
12879;BME280;20617;49.476;10.986;2023-04-24T06:16:54;97242.41;;;13.78;100.00
12879;BME280;20617;49.476;10.986;2023-04-24T06:19:07;97243.50;;;13.76;100.00
12879;BME280;20617;49.476;10.986;2023-04-24T06:21:12;97244.09;;;13.79;100.00
12879;BME280;20617;49.476;10.986;2023-04-24T06:23:17;97243.38;;;13.77;100.00
12879;BME280;20617;49.476;10.986;2023-04-24T06:25:24;97251.94;;;13.79;100.00
12879;BME280;20617;49.476;10.986;2023-04-24T06:27:29;97262.25;;;13.57;100.00
12879;BME280;20617;49.476;10.986;2023-04-24T06:29:39;97276.50;;;13.40;100.00
12879;BME280;20617;49.476;10.986;2023-04-24T06:31:45;97297.06;;;13.06;100.00
12879;BME280;20617;49.476;10.986;2023-04-24T06:33:50;97313.78;;;13.04;100.00
12879;BME280;20617;49.476;10.986;2023-04-24T06:35:56;97282.19;;;12.81;100.00
12879;BME280;20617;49.476;10.986;2023-04-24T06:38:01;97278.13;;;12.37;100.00
12879;BME280;20617;49.476;10.986;2023-04-24T06:40:07;97281.38;;;12.41;100.00
12879;BME280;20617;49.476;10.986;2023-04-24T06:42:12;97291.81;;;12.41;100.00
12879;BME280;20617;49.476;10.986;2023-04-24T06:44:18;97284.59;;;12.32;100.00
12879;BME280;20617;49.476;10.986;2023-04-24T06:46:26;97276.78;;;12.44;100.00
12879;BME280;20617;49.476;10.986;2023-04-24T06:48:31;97285.28;;;12.61;100.00
12879;BME280;20617;49.476;10.986;2023-04-24T06:50:36;97276.19;;;12.54;100.00
12879;BME280;20617;49.476;10.986;2023-04-24T06:52:41;97284.38;;;12.75;100.00
12879;BME280;20617;49.476;10.986;2023-04-24T06:54:46;97282.81;;;12.72;100.00
12879;BME280;20617;49.476;10.986;2023-04-24T06:56:52;97281.66;;;12.63;100.00
12879;BME280;20617;49.476;10.986;2023-04-24T06:58:57;97288.25;;;12.69;100.00
12879;BME280;20617;49.476;10.986;2023-04-24T07:01:02;97291.34;;;12.61;100.00
12879;BME280;20617;49.476;10.986;2023-04-24T07:03:09;97299.59;;;12.68;100.00
12879;BME280;20617;49.476;10.986;2023-04-24T07:05:14;97296.41;;;12.77;100.00
12879;BME280;20617;49.476;10.986;2023-04-24T07:07:21;97298.41;;;12.86;100.00
12879;BME280;20617;49.476;10.986;2023-04-24T07:09:26;97287.22;;;12.84;100.00
12879;BME280;20617;49.476;10.986;2023-04-24T07:11:31;97296.72;;;12.85;100.00
12879;BME280;20617;49.476;10.986;2023-04-24T07:13:39;97288.09;;;12.58;100.00
12879;BME280;20617;49.476;10.986;2023-04-24T07:15:46;97291.53;;;12.58;100.00
12879;BME280;20617;49.476;10.986;2023-04-24T07:17:52;97285.63;;;12.69;100.00
12879;BME280;20617;49.476;10.986;2023-04-24T07:20:00;97283.56;;;12.74;100.00
12879;BME280;20617;49.476;10.986;2023-04-24T07:22:06;97278.28;;;12.61;100.00
12879;BME280;20617;49.476;10.986;2023-04-24T07:24:11;97277.88;;;12.67;100.00
12879;BME280;20617;49.476;10.986;2023-04-24T07:26:16;97287.56;;;12.53;100.00
12879;BME280;20617;49.476;10.986;2023-04-24T07:28:20;97282.25;;;12.54;100.00
12879;BME280;20617;49.476;10.986;2023-04-24T07:30:26;97292.84;;;12.38;100.00
12879;BME280;20617;49.476;10.986;2023-04-24T07:32:32;97294.03;;;12.20;100.00
12879;BME280;20617;49.476;10.986;2023-04-24T07:34:36;97294.63;;;12.11;100.00
12879;BME280;20617;49.476;10.986;2023-04-24T07:36:45;97294.13;;;12.18;100.00
12879;BME280;20617;49.476;10.986;2023-04-24T07:38:50;97284.66;;;12.03;100.00
12879;BME280;20617;49.476;10.986;2023-04-24T07:40:55;97288.22;;;12.02;100.00
12879;BME280;20617;49.476;10.986;2023-04-24T07:43:00;97304.16;;;11.97;100.00
12879;BME280;20617;49.476;10.986;2023-04-24T07:45:05;97311.16;;;11.97;100.00
12879;BME280;20617;49.476;10.986;2023-04-24T07:47:11;97309.47;;;11.96;100.00
12879;BME280;20617;49.476;10.986;2023-04-24T07:49:16;97316.56;;;12.21;100.00
12879;BME280;20617;49.476;10.986;2023-04-24T07:51:21;97307.22;;;12.31;100.00
12879;BME280;20617;49.476;10.986;2023-04-24T07:53:30;97300.06;;;12.48;100.00
12879;BME280;20617;49.476;10.986;2023-04-24T07:55:37;97293.22;;;12.59;100.00
12879;BME280;20617;49.476;10.986;2023-04-24T07:57:42;97296.16;;;12.67;100.00
12879;BME280;20617;49.476;10.986;2023-04-24T07:59:47;97294.84;;;12.75;100.00
12879;BME280;20617;49.476;10.986;2023-04-24T08:01:52;97295.78;;;12.86;100.00
12879;BME280;20617;49.476;10.986;2023-04-24T08:03:58;97297.56;;;12.99;100.00
12879;BME280;20617;49.476;10.986;2023-04-24T08:06:05;97304.38;;;13.14;100.00
12879;BME280;20617;49.476;10.986;2023-04-24T08:08:10;97300.06;;;12.87;100.00
12879;BME280;20617;49.476;10.986;2023-04-24T08:10:17;97305.41;;;12.86;100.00
12879;BME280;20617;49.476;10.986;2023-04-24T08:12:22;97300.78;;;12.77;100.00
12879;BME280;20617;49.476;10.986;2023-04-24T08:14:27;97309.00;;;12.58;100.00
12879;BME280;20617;49.476;10.986;2023-04-24T08:16:32;97312.63;;;12.55;100.00
12879;BME280;20617;49.476;10.986;2023-04-24T08:18:38;97319.44;;;12.58;100.00
12879;BME280;20617;49.476;10.986;2023-04-24T08:20:43;97321.09;;;12.59;100.00
12879;BME280;20617;49.476;10.986;2023-04-24T08:22:47;97326.84;;;12.51;100.00
12879;BME280;20617;49.476;10.986;2023-04-24T08:24:52;97316.91;;;12.56;100.00
12879;BME280;20617;49.476;10.986;2023-04-24T08:27:00;97333.31;;;12.58;100.00
12879;BME280;20617;49.476;10.986;2023-04-24T08:29:07;97323.44;;;12.76;100.00
12879;BME280;20617;49.476;10.986;2023-04-24T08:31:12;97331.53;;;12.99;100.00
12879;BME280;20617;49.476;10.986;2023-04-24T08:33:17;97324.25;;;13.17;100.00
12879;BME280;20617;49.476;10.986;2023-04-24T08:35:22;97320.38;;;13.22;100.00
12879;BME280;20617;49.476;10.986;2023-04-24T08:37:27;97326.69;;;13.32;100.00
12879;BME280;20617;49.476;10.986;2023-04-24T08:39:32;97322.78;;;13.12;100.00
12879;BME280;20617;49.476;10.986;2023-04-24T08:41:37;97332.78;;;13.06;100.00
12879;BME280;20617;49.476;10.986;2023-04-24T08:43:48;97328.50;;;13.05;100.00
12879;BME280;20617;49.476;10.986;2023-04-24T08:45:55;97339.63;;;13.21;100.00
12879;BME280;20617;49.476;10.986;2023-04-24T08:48:02;97343.75;;;13.38;100.00
12879;BME280;20617;49.476;10.986;2023-04-24T08:50:27;97346.66;;;13.33;100.00
12879;BME280;20617;49.476;10.986;2023-04-24T08:52:33;97331.72;;;13.35;100.00
12879;BME280;20617;49.476;10.986;2023-04-24T08:54:39;97338.81;;;13.33;100.00
12879;BME280;20617;49.476;10.986;2023-04-24T08:56:48;97342.78;;;13.39;100.00
12879;BME280;20617;49.476;10.986;2023-04-24T08:58:56;97346.03;;;13.43;100.00
12879;BME280;20617;49.476;10.986;2023-04-24T09:01:01;97336.41;;;13.56;100.00
12879;BME280;20617;49.476;10.986;2023-04-24T09:03:07;97341.97;;;13.39;100.00
12879;BME280;20617;49.476;10.986;2023-04-24T09:05:13;97341.69;;;13.16;100.00
12879;BME280;20617;49.476;10.986;2023-04-24T09:07:19;97342.00;;;13.11;100.00
12879;BME280;20617;49.476;10.986;2023-04-24T09:09:30;97341.16;;;13.11;100.00
12879;BME280;20617;49.476;10.986;2023-04-24T09:11:36;97338.09;;;13.44;100.00
12879;BME280;20617;49.476;10.986;2023-04-24T09:13:43;97328.03;;;13.51;100.00
12879;BME280;20617;49.476;10.986;2023-04-24T09:15:51;97317.88;;;13.72;100.00
12879;BME280;20617;49.476;10.986;2023-04-24T09:17:59;97319.00;;;13.80;100.00
12879;BME280;20617;49.476;10.986;2023-04-24T09:20:05;97313.38;;;13.74;100.00
12879;BME280;20617;49.476;10.986;2023-04-24T09:22:11;97311.50;;;13.76;100.00
12879;BME280;20617;49.476;10.986;2023-04-24T09:24:18;97316.91;;;13.86;100.00
12879;BME280;20617;49.476;10.986;2023-04-24T09:26:24;97314.00;;;13.52;100.00
12879;BME280;20617;49.476;10.986;2023-04-24T09:28:30;97320.09;;;13.27;100.00
12879;BME280;20617;49.476;10.986;2023-04-24T09:30:35;97327.56;;;13.06;100.00
12879;BME280;20617;49.476;10.986;2023-04-24T09:32:42;97329.94;;;12.83;100.00
12879;BME280;20617;49.476;10.986;2023-04-24T09:34:48;97319.50;;;12.96;100.00
12879;BME280;20617;49.476;10.986;2023-04-24T09:36:54;97317.38;;;13.28;100.00
12879;BME280;20617;49.476;10.986;2023-04-24T09:39:00;97312.44;;;13.49;100.00
12879;BME280;20617;49.476;10.986;2023-04-24T09:41:06;97312.81;;;13.81;100.00
12879;BME280;20617;49.476;10.986;2023-04-24T09:43:12;97312.19;;;13.91;100.00
12879;BME280;20617;49.476;10.986;2023-04-24T09:45:17;97304.47;;;14.13;100.00
12879;BME280;20617;49.476;10.986;2023-04-24T09:47:22;97296.88;;;14.34;100.00
12879;BME280;20617;49.476;10.986;2023-04-24T09:49:31;97306.97;;;14.52;100.00
12879;BME280;20617;49.476;10.986;2023-04-24T09:51:38;97294.06;;;14.48;100.00
12879;BME280;20617;49.476;10.986;2023-04-24T09:53:46;97293.59;;;14.67;100.00
12879;BME280;20617;49.476;10.986;2023-04-24T09:56:02;97297.94;;;14.91;100.00
12879;BME280;20617;49.476;10.986;2023-04-24T09:58:08;97304.19;;;14.77;100.00
12879;BME280;20617;49.476;10.986;2023-04-24T10:00:13;97300.78;;;14.53;100.00
12879;BME280;20617;49.476;10.986;2023-04-24T10:02:19;97306.06;;;14.40;100.00
12879;BME280;20617;49.476;10.986;2023-04-24T10:04:27;97308.41;;;14.32;100.00
12879;BME280;20617;49.476;10.986;2023-04-24T10:06:36;97316.16;;;14.57;100.00
12879;BME280;20617;49.476;10.986;2023-04-24T10:08:43;97302.63;;;14.75;100.00
12879;BME280;20617;49.476;10.986;2023-04-24T10:10:49;97312.59;;;14.93;100.00
12879;BME280;20617;49.476;10.986;2023-04-24T10:12:54;97317.00;;;14.93;100.00
12879;BME280;20617;49.476;10.986;2023-04-24T10:15:00;97306.69;;;15.14;100.00
12879;BME280;20617;49.476;10.986;2023-04-24T10:17:07;97306.47;;;15.17;100.00
12879;BME280;20617;49.476;10.986;2023-04-24T10:19:12;97311.81;;;15.04;100.00
12879;BME280;20617;49.476;10.986;2023-04-24T10:21:17;97324.19;;;14.67;100.00
12879;BME280;20617;49.476;10.986;2023-04-24T10:23:26;97338.34;;;14.64;100.00
12879;BME280;20617;49.476;10.986;2023-04-24T10:25:34;97326.66;;;14.44;100.00
12879;BME280;20617;49.476;10.986;2023-04-24T10:27:39;97331.16;;;14.42;100.00
12879;BME280;20617;49.476;10.986;2023-04-24T10:29:44;97336.75;;;14.38;100.00
12879;BME280;20617;49.476;10.986;2023-04-24T10:31:50;97354.72;;;14.18;100.00
12879;BME280;20617;49.476;10.986;2023-04-24T10:33:55;97345.63;;;14.11;100.00
12879;BME280;20617;49.476;10.986;2023-04-24T10:36:01;97360.84;;;13.80;100.00
12879;BME280;20617;49.476;10.986;2023-04-24T10:38:09;97362.13;;;13.62;100.00
12879;BME280;20617;49.476;10.986;2023-04-24T10:40:24;97368.50;;;13.58;100.00
12879;BME280;20617;49.476;10.986;2023-04-24T10:42:29;97373.84;;;13.56;100.00
12879;BME280;20617;49.476;10.986;2023-04-24T10:44:36;97376.66;;;13.28;100.00
12879;BME280;20617;49.476;10.986;2023-04-24T10:46:44;97395.50;;;13.06;100.00
12879;BME280;20617;49.476;10.986;2023-04-24T10:48:52;97392.63;;;12.83;100.00
12879;BME280;20617;49.476;10.986;2023-04-24T10:50:58;97394.94;;;12.88;100.00
12879;BME280;20617;49.476;10.986;2023-04-24T10:53:06;97389.19;;;12.83;100.00
12879;BME280;20617;49.476;10.986;2023-04-24T10:55:12;97402.34;;;12.81;100.00